Corsicana, TX (75110)

08:01 PM CDT em 27 de Agosto de 2014 (GMT -0500)
Campbell-Corsicana Municipal | Change Station
CLOSE
Current Station
Aeroporto
Location: Corsicana,
Altitude: 443 ft
Estações Meteorológicas Próximas

Elev 443 ft 32.03 °N, 96.40 °W | Updated 8 minutes ago

Clear
Céu Limpo
87 °F
Aparente 86 °F
N
6
Vento Variável Vento de Este

Hoje
Máxima -- | Mínima -- °F
--% Possibilidade de Precip.
Ontem
Máxima -- | Mínima -- °F
Precip. -- pol
6:57 AM 7:55 PM
Quarto crescente, 5% visible
Pressão 29.96 pol
Visibilidade 10.0 milhas
Nuvens Céu Limpo
Índice de Calor 86 °F
Ponto de Orvalho 57 °F
Humidade 36%
Chuva 0.00 pol
Altura de Neve Não disponível
UV 0 em vez de 12
Pólen 8.50 em vez de 12
Qualidade do Ar Não disponível
Flu Activity Não disponível
METAR KCRS 280053Z AUTO 09005KT 10SM CLR 31/14 A2997 RMK AO2 SLP143 T03060139

More Conditions Fewer Conditions

Pressão 29.96 pol
Visibilidade 10.0 milhas
Nuvens Céu Limpo
Índice de Calor 86 °F
Ponto de Orvalho 57 °F
Humidade 36%
Chuva 0.00 pol
Altura de Neve Não disponível
UV 0 em vez de 12
Pólen 8.50 em vez de 12
Qualidade do Ar Não disponível
Flu Activity Não disponível
METAR KCRS 280053Z AUTO 09005KT 10SM CLR 31/14 A2997 RMK AO2 SLP143 T03060139

More Conditions Fewer Conditions

10-Day Weather Forecast

Almanac

Astronomia

Aug. 27, 2014 Nascer Pôr
Hora atual 06:57 CDT 19:55 CDT
Crepúsculo civil 06:32 CDT 20:21 CDT
Crepúsculo náutico 06:02 CDT 20:50 CDT
Crepúsculo astronómico 05:32 CDT 21:21 CDT
Lua 08:45 CDT (8/27) 20:59 CDT (8/27)
Comprimento da luz visível 13h 48m
Duração do Dia
12h 58m
Tomorrow will be 1m 51s shorter.
Quarto crescente, 5% of the Moon is Illuminated
Hoje
Quarto crescente
Set 2
Quarto crescente
Set 8
Lua cheia
Set 15
Quarto minguante
Set 24
Nova

Extremos de Hoje

situação na parte mais alta situação na parte mais baixa

Community

WunderPhotos

Upload Photos

1,747,843 fotografias inseridas!

Nearby

Altura da Neve

Estação altura Altitude
Não há relatos de neve recente.

Actividade Sísmisca

Cidade Distância Mag. Hora & Data
Não há notícias de atividade sísmica recente perto de si.
Mínima magnitude apresentada é 2.5.

Temperaturas das Águas Costeiras

Local Temperatura
Não há estações a reportar dados

Estações Meteorológicas Próximas